createdAt,value
2023-04-17T00:02:20.671Z,100.00
2023-04-17T00:05:10.371Z,100.00
2023-04-17T00:08:01.392Z,100.00
2023-04-17T00:11:00.152Z,100.00
2023-04-17T00:13:52.698Z,100.00
2023-04-17T00:16:41.764Z,100.00
2023-04-17T00:19:33.441Z,100.00
2023-04-17T00:22:21.981Z,100.00
2023-04-17T00:25:15.968Z,100.00
2023-04-17T00:28:03.821Z,100.00
2023-04-17T00:30:52.585Z,100.00
2023-04-17T00:33:43.461Z,100.00
2023-04-17T00:36:35.183Z,100.00
2023-04-17T00:39:25.192Z,100.00
2023-04-17T00:42:26.331Z,100.00
2023-04-17T00:45:15.201Z,100.00
2023-04-17T00:48:07.357Z,100.00
2023-04-17T00:50:55.976Z,100.00
2023-04-17T00:53:47.658Z,100.00
2023-04-17T00:56:36.263Z,100.00
2023-04-17T00:59:32.783Z,100.00
2023-04-17T01:02:28.265Z,100.00
2023-04-17T01:05:19.274Z,100.00
2023-04-17T01:08:28.108Z,100.00
2023-04-17T01:11:18.698Z,100.00
2023-04-17T01:14:11.714Z,100.00
2023-04-17T01:17:12.801Z,100.00
2023-04-17T01:20:01.567Z,100.00
2023-04-17T01:22:58.238Z,100.00
2023-04-17T01:25:52.048Z,100.00
2023-04-17T01:28:46.237Z,100.00
2023-04-17T01:31:42.676Z,100.00
2023-04-17T01:34:44.694Z,100.00
2023-04-17T01:37:46.542Z,100.00
2023-04-17T01:40:46.709Z,100.00
2023-04-17T01:43:48.664Z,100.00
2023-04-17T01:46:51.361Z,100.00
2023-04-17T01:49:40.409Z,100.00
2023-04-17T01:55:45.618Z,100.00
2023-04-17T01:58:54.536Z,100.00
2023-04-17T02:01:45.497Z,100.00
2023-04-17T02:04:45.912Z,100.00
2023-04-17T02:07:43.963Z,100.00
2023-04-17T02:10:40.177Z,100.00
2023-04-17T02:13:42.822Z,100.00
2023-04-17T02:16:41.016Z,100.00
2023-04-17T02:19:41.067Z,100.00
2023-04-17T02:22:45.790Z,100.00
2023-04-17T02:25:48.498Z,100.00
2023-04-17T02:28:40.077Z,100.00
2023-04-17T02:31:44.175Z,100.00
2023-04-17T02:34:42.547Z,100.00
2023-04-17T02:38:06.284Z,100.00
2023-04-17T02:41:08.590Z,100.00
2023-04-17T02:44:06.849Z,100.00
2023-04-17T02:47:09.551Z,100.00
2023-04-17T02:50:12.799Z,100.00
2023-04-17T02:53:14.350Z,100.00
2023-04-17T02:56:23.604Z,100.00
2023-04-17T02:59:23.990Z,100.00
2023-04-17T03:02:16.743Z,100.00
2023-04-17T03:05:17.768Z,100.00
2023-04-17T03:08:25.203Z,100.00
2023-04-17T03:11:19.195Z,100.00
2023-04-17T03:14:17.897Z,100.00
2023-04-17T03:17:14.247Z,100.00
2023-04-17T03:20:19.990Z,100.00
2023-04-17T03:23:10.480Z,100.00
2023-04-17T03:26:03.508Z,100.00
2023-04-17T03:29:03.817Z,100.00
2023-04-17T03:32:15.337Z,100.00
2023-04-17T03:39:02.252Z,100.00
2023-04-17T03:42:05.093Z,100.00
2023-04-17T03:45:01.412Z,100.00
2023-04-17T03:47:57.501Z,100.00
2023-04-17T03:51:05.841Z,100.00
2023-04-17T03:54:02.376Z,100.00
2023-04-17T03:57:07.922Z,100.00
2023-04-17T04:00:10.769Z,100.00
2023-04-17T04:03:09.255Z,100.00
2023-04-17T04:06:04.171Z,100.00
2023-04-17T04:09:06.444Z,100.00
2023-04-17T04:12:01.824Z,100.00
2023-04-17T04:15:11.930Z,100.00
2023-04-17T04:18:17.078Z,100.00
2023-04-17T04:21:21.674Z,100.00
2023-04-17T04:24:15.809Z,100.00
2023-04-17T04:27:12.143Z,100.00
2023-04-17T04:30:10.256Z,100.00
2023-04-17T04:33:22.987Z,100.00
2023-04-17T04:36:30.170Z,100.00
2023-04-17T04:39:32.074Z,100.00
2023-04-17T04:42:38.800Z,100.00
2023-04-17T04:45:51.745Z,100.00
2023-04-17T04:48:45.760Z,100.00
2023-04-17T04:51:42.760Z,100.00
2023-04-17T04:54:31.380Z,100.00
2023-04-17T04:57:25.087Z,100.00
2023-04-17T05:00:24.203Z,100.00
2023-04-17T05:03:24.212Z,100.00
2023-04-17T05:06:24.383Z,100.00
2023-04-17T05:09:17.105Z,100.00
2023-04-17T05:12:20.440Z,100.00
2023-04-17T05:15:13.309Z,100.00
2023-04-17T05:18:00.929Z,100.00
2023-04-17T05:20:49.388Z,100.00
2023-04-17T05:23:44.369Z,100.00
2023-04-17T05:26:50.837Z,100.00
2023-04-17T05:29:48.833Z,100.00
2023-04-17T05:32:46.813Z,100.00
2023-04-17T05:35:38.605Z,100.00
2023-04-17T05:38:35.708Z,100.00
2023-04-17T05:41:58.732Z,100.00
2023-04-17T05:45:03.890Z,100.00
2023-04-17T05:48:17.015Z,100.00
2023-04-17T05:51:23.348Z,100.00
2023-04-17T05:54:17.187Z,100.00
2023-04-17T05:57:22.854Z,100.00
2023-04-17T06:00:19.463Z,100.00
2023-04-17T06:03:41.001Z,100.00
2023-04-17T06:06:29.629Z,100.00
2023-04-17T06:09:34.117Z,100.00
2023-04-17T06:15:44.176Z,100.00
2023-04-17T06:19:01.706Z,100.00
2023-04-17T06:22:07.126Z,100.00
2023-04-17T06:25:13.024Z,100.00
2023-04-17T06:28:22.897Z,100.00
2023-04-17T06:31:58.362Z,100.00
2023-04-17T06:34:59.448Z,100.00
2023-04-17T06:38:18.871Z,100.00
2023-04-17T06:44:34.042Z,100.00
2023-04-17T06:47:33.414Z,100.00
2023-04-17T06:51:12.546Z,100.00
2023-04-17T06:58:48.715Z,100.00
2023-04-17T07:01:38.232Z,100.00
2023-04-17T07:04:39.727Z,100.00
2023-04-17T07:08:02.400Z,100.00
2023-04-17T07:11:10.480Z,100.00
2023-04-17T07:14:37.649Z,100.00
2023-04-17T07:21:10.372Z,100.00
2023-04-17T07:24:10.811Z,100.00
2023-04-17T07:30:44.960Z,100.00
2023-04-17T07:34:09.861Z,100.00
2023-04-17T07:40:56.341Z,100.00
2023-04-17T07:44:07.831Z,100.00
2023-04-17T07:47:38.014Z,100.00
2023-04-17T07:50:37.006Z,100.00
2023-04-17T07:54:30.391Z,100.00
2023-04-17T08:01:07.330Z,100.00
2023-04-17T08:07:34.239Z,100.00
2023-04-17T08:10:47.088Z,100.00
2023-04-17T08:14:01.267Z,100.00
2023-04-17T08:17:12.682Z,100.00
2023-04-17T08:20:12.037Z,100.00
2023-04-17T08:23:14.227Z,100.00
2023-04-17T08:26:17.374Z,100.00
2023-04-17T08:29:24.715Z,100.00
2023-04-17T08:32:52.523Z,100.00
2023-04-17T08:35:57.152Z,100.00
2023-04-17T08:39:19.029Z,100.00
2023-04-17T08:49:58.191Z,100.00
2023-04-17T08:56:36.086Z,100.00
2023-04-17T08:59:47.140Z,100.00
2023-04-17T09:03:05.092Z,100.00
2023-04-17T09:06:02.793Z,100.00
2023-04-17T09:09:04.638Z,100.00
2023-04-17T09:12:12.015Z,100.00
2023-04-17T09:15:24.568Z,100.00
2023-04-17T09:18:32.202Z,100.00
2023-04-17T09:21:34.530Z,100.00
2023-04-17T09:24:52.109Z,100.00
2023-04-17T09:27:49.921Z,100.00
2023-04-17T09:30:55.608Z,100.00
2023-04-17T09:34:02.941Z,100.00
2023-04-17T09:37:13.050Z,100.00
2023-04-17T09:40:13.616Z,100.00
2023-04-17T09:43:09.791Z,100.00
2023-04-17T09:46:12.412Z,100.00
2023-04-17T09:49:21.139Z,100.00
2023-04-17T09:52:23.130Z,100.00
2023-04-17T09:55:19.471Z,100.00
2023-04-17T09:58:27.184Z,100.00
2023-04-17T10:02:28.904Z,100.00
2023-04-17T10:05:48.389Z,100.00
2023-04-17T10:08:52.252Z,100.00
2023-04-17T10:11:50.065Z,100.00
2023-04-17T10:14:46.999Z,100.00
2023-04-17T10:17:49.309Z,100.00
2023-04-17T10:20:57.273Z,100.00
2023-04-17T10:24:06.733Z,100.00
2023-04-17T10:26:58.604Z,100.00
2023-04-17T10:30:17.502Z,100.00
2023-04-17T10:33:31.709Z,100.00
2023-04-17T10:36:56.528Z,100.00
2023-04-17T10:40:03.142Z,100.00
2023-04-17T10:43:14.848Z,100.00
2023-04-17T10:46:14.478Z,100.00
2023-04-17T10:49:12.209Z,100.00
2023-04-17T10:52:05.328Z,100.00
2023-04-17T10:55:08.663Z,100.00
2023-04-17T10:58:22.132Z,100.00
2023-04-17T11:01:29.477Z,100.00
2023-04-17T11:04:56.323Z,100.00
2023-04-17T11:07:58.659Z,100.00
2023-04-17T11:14:24.197Z,100.00
2023-04-17T11:17:24.276Z,100.00
2023-04-17T11:20:15.219Z,100.00
2023-04-17T11:23:15.111Z,100.00
2023-04-17T11:26:20.769Z,100.00
2023-04-17T11:29:30.846Z,100.00
2023-04-17T11:32:46.441Z,100.00
2023-04-17T11:35:57.218Z,100.00
2023-04-17T11:39:05.532Z,100.00
2023-04-17T11:42:01.481Z,100.00
2023-04-17T11:44:53.663Z,100.00
2023-04-17T11:47:51.322Z,100.00
2023-04-17T11:51:03.035Z,100.00
2023-04-17T11:54:02.079Z,100.00
2023-04-17T11:57:03.929Z,100.00
2023-04-17T11:59:59.447Z,100.00
2023-04-17T12:02:53.341Z,100.00
2023-04-17T12:06:06.831Z,100.00
2023-04-17T12:09:01.895Z,100.00
2023-04-17T12:12:07.972Z,100.00
2023-04-17T12:15:16.908Z,100.00
2023-04-17T12:18:16.507Z,100.00
2023-04-17T12:21:27.193Z,100.00
2023-04-17T12:24:33.913Z,100.00
2023-04-17T12:30:59.370Z,100.00
2023-04-17T12:34:09.417Z,100.00
2023-04-17T12:37:29.464Z,100.00
2023-04-17T12:41:09.435Z,100.00
2023-04-17T12:44:15.269Z,100.00
2023-04-17T12:47:42.620Z,97.12
2023-04-17T12:51:10.837Z,98.86
2023-04-17T12:54:10.870Z,100.00
2023-04-17T12:57:30.168Z,100.00
2023-04-17T13:00:47.022Z,100.00
2023-04-17T13:03:59.509Z,100.00
2023-04-17T13:07:36.748Z,100.00
2023-04-17T13:10:38.759Z,100.00
2023-04-17T13:15:12.130Z,100.00
2023-04-17T13:16:54.514Z,100.00
2023-04-17T13:19:55.202Z,100.00
2023-04-17T13:22:55.412Z,100.00
2023-04-17T13:26:02.946Z,100.00
2023-04-17T13:29:06.673Z,100.00
2023-04-17T13:32:25.058Z,100.00
2023-04-17T13:35:36.100Z,100.00
2023-04-17T13:38:53.679Z,97.98
2023-04-17T13:41:43.642Z,97.75
2023-04-17T13:44:35.894Z,97.72
2023-04-17T13:47:33.284Z,95.14
2023-04-17T13:50:47.009Z,96.61
2023-04-17T13:53:52.722Z,98.87
2023-04-17T13:56:50.225Z,97.42
2023-04-17T13:59:51.229Z,100.00
2023-04-17T14:03:07.391Z,99.49
2023-04-17T14:05:55.139Z,97.91
2023-04-17T14:08:46.445Z,98.24
2023-04-17T14:15:08.580Z,97.82
2023-04-17T14:18:32.147Z,97.40
2023-04-17T14:21:52.714Z,100.00
2023-04-17T14:25:08.549Z,100.00
2023-04-17T14:28:26.028Z,100.00
2023-04-17T14:31:57.823Z,98.37
2023-04-17T14:34:55.397Z,100.00
2023-04-17T14:38:17.368Z,89.88
2023-04-17T14:41:42.410Z,95.07
2023-04-17T14:44:47.492Z,89.69
2023-04-17T14:48:21.397Z,92.90
2023-04-17T14:51:48.069Z,92.92
2023-04-17T14:58:25.616Z,90.31
2023-04-17T15:01:49.152Z,88.75
2023-04-17T15:04:59.978Z,86.28
2023-04-17T15:08:00.913Z,89.61
2023-04-17T15:11:29.273Z,91.06
2023-04-17T15:14:29.236Z,90.56
2023-04-17T15:17:18.580Z,88.48
2023-04-17T15:20:08.927Z,86.71
2023-04-17T15:23:28.499Z,88.99
2023-04-17T15:26:16.465Z,89.47
2023-04-17T15:29:11.027Z,91.18
2023-04-17T15:32:17.289Z,92.57
2023-04-17T15:35:14.626Z,90.41
2023-04-17T15:47:05.411Z,93.47
2023-04-17T15:50:34.357Z,93.32
2023-04-17T15:58:25.313Z,95.34
2023-04-17T16:06:52.168Z,97.96
2023-04-17T16:15:36.584Z,100.00
2023-04-17T16:23:43.782Z,100.00
2023-04-17T16:27:25.266Z,100.00
2023-04-17T16:31:04.467Z,100.00
2023-04-17T16:34:24.578Z,99.64
2023-04-17T16:38:00.880Z,100.00
2023-04-17T16:44:57.961Z,100.00
2023-04-17T16:48:00.814Z,100.00
2023-04-17T16:51:44.841Z,100.00
2023-04-17T17:09:46.387Z,100.00
2023-04-17T17:13:32.539Z,100.00
2023-04-17T17:17:11.357Z,100.00
2023-04-17T17:20:37.729Z,100.00
2023-04-17T17:25:09.212Z,100.00
2023-04-17T17:27:27.214Z,100.00
2023-04-17T17:30:57.766Z,100.00
2023-04-17T17:34:28.533Z,100.00
2023-04-17T17:42:03.618Z,100.00
2023-04-17T17:45:00.677Z,100.00
2023-04-17T17:47:19.184Z,100.00
2023-04-17T17:48:11.728Z,100.00
2023-04-17T17:51:32.193Z,100.00
2023-04-17T17:54:52.588Z,100.00
2023-04-17T17:58:04.684Z,100.00
2023-04-17T18:01:03.192Z,100.00
2023-04-17T18:04:28.983Z,100.00
2023-04-17T18:07:23.887Z,100.00
2023-04-17T18:10:37.381Z,100.00
2023-04-17T18:14:02.875Z,100.00
2023-04-17T18:17:32.730Z,100.00
2023-04-17T18:20:50.292Z,100.00
2023-04-17T18:23:57.005Z,100.00
2023-04-17T18:27:44.517Z,100.00
2023-04-17T18:36:20.659Z,100.00
2023-04-17T18:39:16.734Z,100.00
2023-04-17T18:42:18.359Z,100.00
2023-04-17T18:45:26.584Z,100.00
2023-04-17T18:48:42.165Z,100.00
2023-04-17T18:55:21.091Z,100.00
2023-04-17T18:58:29.687Z,100.00
2023-04-17T19:03:12.643Z,100.00
2023-04-17T19:06:29.063Z,100.00
2023-04-17T19:09:26.047Z,100.00
2023-04-17T19:13:01.873Z,100.00
2023-04-17T19:16:17.244Z,100.00
2023-04-17T19:19:20.550Z,100.00
2023-04-17T19:22:23.113Z,100.00
2023-04-17T19:25:20.681Z,100.00
2023-04-17T19:29:07.678Z,100.00
2023-04-17T19:32:19.868Z,100.00
2023-04-17T19:35:14.599Z,100.00
2023-04-17T19:38:34.671Z,100.00
2023-04-17T19:41:32.274Z,100.00
2023-04-17T19:44:39.185Z,100.00
2023-04-17T19:47:40.023Z,100.00
2023-04-17T19:51:00.540Z,100.00
2023-04-17T19:53:57.843Z,100.00
2023-04-17T19:56:49.571Z,100.00
2023-04-17T19:59:57.843Z,100.00
2023-04-17T20:03:14.099Z,100.00
2023-04-17T20:06:22.522Z,100.00
2023-04-17T20:10:02.955Z,100.00
2023-04-17T20:13:05.217Z,100.00
2023-04-17T20:17:10.329Z,100.00
2023-04-17T20:20:44.679Z,100.00
2023-04-17T20:24:03.866Z,100.00
2023-04-17T20:27:11.039Z,100.00
2023-04-17T20:30:46.801Z,100.00
2023-04-17T20:34:09.828Z,100.00
2023-04-17T20:37:34.621Z,100.00
2023-04-17T20:47:56.049Z,100.00
2023-04-17T20:51:20.773Z,100.00
2023-04-17T20:54:57.606Z,100.00
2023-04-17T20:58:07.776Z,100.00
2023-04-17T21:02:03.673Z,100.00
2023-04-17T21:05:16.011Z,100.00
2023-04-17T21:08:24.755Z,100.00
2023-04-17T21:11:55.708Z,100.00
2023-04-17T21:14:55.922Z,100.00
2023-04-17T21:18:03.733Z,100.00
2023-04-17T21:21:13.656Z,100.00
2023-04-17T21:24:16.849Z,100.00
2023-04-17T21:27:58.444Z,100.00
2023-04-17T21:30:56.103Z,100.00
2023-04-17T21:34:18.375Z,100.00
2023-04-17T21:37:13.872Z,100.00
2023-04-17T21:40:33.015Z,100.00
2023-04-17T21:43:29.984Z,100.00
2023-04-17T21:46:32.787Z,100.00
2023-04-17T21:49:41.300Z,100.00
2023-04-17T21:52:59.130Z,100.00
2023-04-17T21:55:54.701Z,100.00
2023-04-17T21:59:17.434Z,100.00
2023-04-17T22:02:41.869Z,100.00
2023-04-17T22:05:39.503Z,100.00
2023-04-17T22:08:49.722Z,100.00
2023-04-17T22:11:58.322Z,100.00
2023-04-17T22:15:03.541Z,100.00
2023-04-17T22:18:06.468Z,100.00
2023-04-17T22:20:58.273Z,100.00
2023-04-17T22:23:54.922Z,100.00
2023-04-17T22:26:45.738Z,100.00
2023-04-17T22:30:08.936Z,100.00
2023-04-17T22:33:12.440Z,100.00
2023-04-17T22:36:09.646Z,100.00
2023-04-17T22:39:07.729Z,100.00
2023-04-17T22:42:05.992Z,100.00
2023-04-17T22:45:04.396Z,100.00
2023-04-17T22:48:12.293Z,100.00
2023-04-17T22:51:09.777Z,100.00
2023-04-17T22:54:11.593Z,100.00
2023-04-17T22:57:24.191Z,100.00
2023-04-17T23:00:29.630Z,100.00
2023-04-17T23:03:22.864Z,100.00
2023-04-17T23:06:24.094Z,100.00
2023-04-17T23:09:31.390Z,100.00
2023-04-17T23:12:29.857Z,100.00
2023-04-17T23:15:25.804Z,100.00
2023-04-17T23:18:23.036Z,100.00
2023-04-17T23:21:28.679Z,100.00
2023-04-17T23:24:44.438Z,100.00
2023-04-17T23:27:45.032Z,100.00
2023-04-17T23:30:51.143Z,100.00
2023-04-17T23:33:50.110Z,100.00
2023-04-17T23:36:50.413Z,100.00
2023-04-17T23:39:50.507Z,100.00
2023-04-17T23:45:55.866Z,100.00
2023-04-17T23:48:58.543Z,100.00
2023-04-17T23:52:01.074Z,100.00
2023-04-17T23:55:02.155Z,100.00
2023-04-17T23:58:19.729Z,100.00
